sensor_id;sensor_type;location;lat;lon;timestamp;P1;durP1;ratioP1;P2;durP2;ratioP2
63218;SDS011;49320;52.512;13.448;2023-07-09T00:01:53;2.53;;;2.10;;
63218;SDS011;49320;52.512;13.448;2023-07-09T00:04:20;3.35;;;2.47;;
63218;SDS011;49320;52.512;13.448;2023-07-09T00:06:47;3.45;;;2.35;;
63218;SDS011;49320;52.512;13.448;2023-07-09T00:09:16;2.97;;;2.17;;
63218;SDS011;49320;52.512;13.448;2023-07-09T00:11:45;3.60;;;2.33;;
63218;SDS011;49320;52.512;13.448;2023-07-09T00:14:14;3.97;;;2.58;;
63218;SDS011;49320;52.512;13.448;2023-07-09T00:16:43;3.38;;;2.47;;
63218;SDS011;49320;52.512;13.448;2023-07-09T00:19:15;2.90;;;2.60;;
63218;SDS011;49320;52.512;13.448;2023-07-09T00:21:48;3.90;;;1.98;;
63218;SDS011;49320;52.512;13.448;2023-07-09T00:24:19;4.63;;;2.50;;
63218;SDS011;49320;52.512;13.448;2023-07-09T00:26:47;4.40;;;2.92;;
63218;SDS011;49320;52.512;13.448;2023-07-09T00:29:15;3.58;;;2.53;;
63218;SDS011;49320;52.512;13.448;2023-07-09T00:31:43;4.10;;;3.40;;
63218;SDS011;49320;52.512;13.448;2023-07-09T00:34:10;5.35;;;3.70;;
63218;SDS011;49320;52.512;13.448;2023-07-09T00:36:40;5.15;;;3.55;;
63218;SDS011;49320;52.512;13.448;2023-07-09T00:39:15;4.25;;;3.10;;
63218;SDS011;49320;52.512;13.448;2023-07-09T00:41:45;3.42;;;2.90;;
63218;SDS011;49320;52.512;13.448;2023-07-09T00:49:35;4.97;;;2.50;;
63218;SDS011;49320;52.512;13.448;2023-07-09T00:52:18;3.95;;;2.33;;
63218;SDS011;49320;52.512;13.448;2023-07-09T00:54:56;2.63;;;2.08;;
63218;SDS011;49320;52.512;13.448;2023-07-09T00:57:29;3.42;;;2.65;;
63218;SDS011;49320;52.512;13.448;2023-07-09T00:59:57;4.22;;;2.78;;
63218;SDS011;49320;52.512;13.448;2023-07-09T01:02:37;3.05;;;2.70;;
63218;SDS011;49320;52.512;13.448;2023-07-09T01:05:11;3.70;;;2.80;;
63218;SDS011;49320;52.512;13.448;2023-07-09T01:07:40;4.28;;;2.28;;
63218;SDS011;49320;52.512;13.448;2023-07-09T01:10:13;2.47;;;2.17;;
63218;SDS011;49320;52.512;13.448;2023-07-09T01:12:43;3.03;;;2.17;;
63218;SDS011;49320;52.512;13.448;2023-07-09T01:15:13;2.85;;;2.40;;
63218;SDS011;49320;52.512;13.448;2023-07-09T01:17:41;2.90;;;2.50;;
63218;SDS011;49320;52.512;13.448;2023-07-09T01:20:15;3.75;;;2.65;;
63218;SDS011;49320;52.512;13.448;2023-07-09T01:22:48;4.05;;;2.53;;
63218;SDS011;49320;52.512;13.448;2023-07-09T01:25:17;4.75;;;2.90;;
63218;SDS011;49320;52.512;13.448;2023-07-09T01:27:44;3.05;;;2.30;;
63218;SDS011;49320;52.512;13.448;2023-07-09T01:30:18;3.53;;;2.53;;
63218;SDS011;49320;52.512;13.448;2023-07-09T01:32:50;3.25;;;2.30;;
63218;SDS011;49320;52.512;13.448;2023-07-09T01:35:23;3.20;;;2.47;;
63218;SDS011;49320;52.512;13.448;2023-07-09T01:37:52;4.00;;;2.70;;
63218;SDS011;49320;52.512;13.448;2023-07-09T01:40:20;3.85;;;2.75;;
63218;SDS011;49320;52.512;13.448;2023-07-09T01:42:59;3.35;;;2.60;;
63218;SDS011;49320;52.512;13.448;2023-07-09T01:45:28;4.70;;;2.67;;
63218;SDS011;49320;52.512;13.448;2023-07-09T01:47:55;4.20;;;2.45;;
63218;SDS011;49320;52.512;13.448;2023-07-09T01:50:23;3.30;;;2.22;;
63218;SDS011;49320;52.512;13.448;2023-07-09T01:52:52;3.78;;;2.70;;
63218;SDS011;49320;52.512;13.448;2023-07-09T01:55:21;2.88;;;2.38;;
63218;SDS011;49320;52.512;13.448;2023-07-09T01:57:48;3.75;;;2.40;;
63218;SDS011;49320;52.512;13.448;2023-07-09T02:00:17;3.03;;;2.22;;
63218;SDS011;49320;52.512;13.448;2023-07-09T02:02:45;3.85;;;2.20;;
63218;SDS011;49320;52.512;13.448;2023-07-09T02:05:15;3.42;;;2.25;;
63218;SDS011;49320;52.512;13.448;2023-07-09T02:07:44;3.25;;;2.40;;
63218;SDS011;49320;52.512;13.448;2023-07-09T02:10:12;5.43;;;2.20;;
63218;SDS011;49320;52.512;13.448;2023-07-09T02:12:41;3.85;;;2.40;;
63218;SDS011;49320;52.512;13.448;2023-07-09T02:15:09;4.55;;;2.40;;
63218;SDS011;49320;52.512;13.448;2023-07-09T02:17:36;3.63;;;2.50;;
63218;SDS011;49320;52.512;13.448;2023-07-09T02:20:03;5.72;;;2.75;;
63218;SDS011;49320;52.512;13.448;2023-07-09T02:22:33;2.95;;;2.47;;
63218;SDS011;49320;52.512;13.448;2023-07-09T02:25:02;2.50;;;2.10;;
63218;SDS011;49320;52.512;13.448;2023-07-09T02:27:32;3.67;;;2.17;;
63218;SDS011;49320;52.512;13.448;2023-07-09T02:29:59;3.03;;;2.40;;
63218;SDS011;49320;52.512;13.448;2023-07-09T02:32:27;3.40;;;2.67;;
63218;SDS011;49320;52.512;13.448;2023-07-09T02:34:54;4.35;;;2.22;;
63218;SDS011;49320;52.512;13.448;2023-07-09T02:37:22;3.13;;;2.20;;
63218;SDS011;49320;52.512;13.448;2023-07-09T02:39:52;5.55;;;2.70;;
63218;SDS011;49320;52.512;13.448;2023-07-09T02:42:20;4.57;;;2.40;;
63218;SDS011;49320;52.512;13.448;2023-07-09T02:44:48;3.67;;;2.45;;
63218;SDS011;49320;52.512;13.448;2023-07-09T02:47:16;3.63;;;2.60;;
63218;SDS011;49320;52.512;13.448;2023-07-09T02:49:43;3.60;;;2.28;;
63218;SDS011;49320;52.512;13.448;2023-07-09T02:52:10;2.97;;;2.25;;
63218;SDS011;49320;52.512;13.448;2023-07-09T02:54:38;3.28;;;2.47;;
63218;SDS011;49320;52.512;13.448;2023-07-09T02:57:05;3.78;;;3.00;;
63218;SDS011;49320;52.512;13.448;2023-07-09T02:59:33;3.58;;;2.65;;
63218;SDS011;49320;52.512;13.448;2023-07-09T03:02:00;3.00;;;2.70;;
63218;SDS011;49320;52.512;13.448;2023-07-09T03:04:28;4.72;;;2.85;;
63218;SDS011;49320;52.512;13.448;2023-07-09T03:06:57;3.17;;;2.40;;
63218;SDS011;49320;52.512;13.448;2023-07-09T03:09:26;2.80;;;2.20;;
63218;SDS011;49320;52.512;13.448;2023-07-09T03:11:54;3.00;;;2.33;;
63218;SDS011;49320;52.512;13.448;2023-07-09T03:14:21;2.58;;;2.22;;
63218;SDS011;49320;52.512;13.448;2023-07-09T03:16:48;2.70;;;2.10;;
63218;SDS011;49320;52.512;13.448;2023-07-09T03:19:15;3.67;;;2.40;;
63218;SDS011;49320;52.512;13.448;2023-07-09T03:21:42;4.05;;;2.25;;
63218;SDS011;49320;52.512;13.448;2023-07-09T03:24:09;2.88;;;2.28;;
63218;SDS011;49320;52.512;13.448;2023-07-09T03:26:36;2.45;;;2.13;;
63218;SDS011;49320;52.512;13.448;2023-07-09T03:29:03;3.78;;;2.53;;
63218;SDS011;49320;52.512;13.448;2023-07-09T03:31:30;2.85;;;2.17;;
63218;SDS011;49320;52.512;13.448;2023-07-09T03:34:01;4.45;;;2.67;;
63218;SDS011;49320;52.512;13.448;2023-07-09T03:36:28;4.45;;;2.58;;
63218;SDS011;49320;52.512;13.448;2023-07-09T03:38:56;3.90;;;2.63;;
63218;SDS011;49320;52.512;13.448;2023-07-09T03:41:23;2.35;;;2.10;;
63218;SDS011;49320;52.512;13.448;2023-07-09T03:43:51;2.45;;;2.00;;
63218;SDS011;49320;52.512;13.448;2023-07-09T03:46:19;3.08;;;2.35;;
63218;SDS011;49320;52.512;13.448;2023-07-09T03:48:47;2.92;;;2.30;;
63218;SDS011;49320;52.512;13.448;2023-07-09T03:51:16;3.38;;;2.28;;
63218;SDS011;49320;52.512;13.448;2023-07-09T03:53:44;3.03;;;2.30;;
63218;SDS011;49320;52.512;13.448;2023-07-09T03:56:11;2.58;;;2.00;;
63218;SDS011;49320;52.512;13.448;2023-07-09T03:58:38;3.10;;;2.25;;
63218;SDS011;49320;52.512;13.448;2023-07-09T04:01:05;3.85;;;2.67;;
63218;SDS011;49320;52.512;13.448;2023-07-09T04:03:33;3.85;;;2.45;;
63218;SDS011;49320;52.512;13.448;2023-07-09T04:06:00;4.80;;;2.85;;
63218;SDS011;49320;52.512;13.448;2023-07-09T04:08:28;3.22;;;2.25;;
63218;SDS011;49320;52.512;13.448;2023-07-09T04:10:58;4.18;;;2.72;;
63218;SDS011;49320;52.512;13.448;2023-07-09T04:13:27;3.97;;;2.20;;
63218;SDS011;49320;52.512;13.448;2023-07-09T04:15:55;3.92;;;2.47;;
63218;SDS011;49320;52.512;13.448;2023-07-09T04:18:23;2.90;;;2.50;;
63218;SDS011;49320;52.512;13.448;2023-07-09T04:20:50;2.65;;;2.30;;
63218;SDS011;49320;52.512;13.448;2023-07-09T04:23:18;3.90;;;2.53;;
63218;SDS011;49320;52.512;13.448;2023-07-09T04:25:46;3.80;;;2.15;;
63218;SDS011;49320;52.512;13.448;2023-07-09T04:28:14;4.40;;;2.30;;
63218;SDS011;49320;52.512;13.448;2023-07-09T04:30:51;3.40;;;2.25;;
63218;SDS011;49320;52.512;13.448;2023-07-09T04:33:18;3.33;;;2.40;;
63218;SDS011;49320;52.512;13.448;2023-07-09T04:35:47;4.18;;;2.38;;
63218;SDS011;49320;52.512;13.448;2023-07-09T04:38:15;2.88;;;2.05;;
63218;SDS011;49320;52.512;13.448;2023-07-09T04:40:42;3.05;;;2.42;;
63218;SDS011;49320;52.512;13.448;2023-07-09T04:43:10;3.25;;;2.40;;
63218;SDS011;49320;52.512;13.448;2023-07-09T04:45:36;3.00;;;2.30;;
63218;SDS011;49320;52.512;13.448;2023-07-09T04:48:03;4.00;;;2.22;;
63218;SDS011;49320;52.512;13.448;2023-07-09T04:50:31;3.45;;;2.25;;
63218;SDS011;49320;52.512;13.448;2023-07-09T04:52:58;3.17;;;2.40;;
63218;SDS011;49320;52.512;13.448;2023-07-09T04:55:26;3.40;;;2.53;;
63218;SDS011;49320;52.512;13.448;2023-07-09T04:57:53;2.65;;;2.20;;
63218;SDS011;49320;52.512;13.448;2023-07-09T05:00:21;3.42;;;2.70;;
63218;SDS011;49320;52.512;13.448;2023-07-09T05:02:48;3.80;;;2.33;;
63218;SDS011;49320;52.512;13.448;2023-07-09T05:05:16;4.47;;;2.30;;
63218;SDS011;49320;52.512;13.448;2023-07-09T05:07:43;4.95;;;2.58;;
63218;SDS011;49320;52.512;13.448;2023-07-09T05:10:10;3.58;;;2.78;;
63218;SDS011;49320;52.512;13.448;2023-07-09T05:12:46;3.45;;;2.50;;
63218;SDS011;49320;52.512;13.448;2023-07-09T05:15:19;2.85;;;2.50;;
63218;SDS011;49320;52.512;13.448;2023-07-09T05:17:48;2.92;;;2.20;;
63218;SDS011;49320;52.512;13.448;2023-07-09T05:20:15;3.42;;;2.50;;
63218;SDS011;49320;52.512;13.448;2023-07-09T05:22:42;3.05;;;2.60;;
63218;SDS011;49320;52.512;13.448;2023-07-09T05:25:11;3.13;;;2.42;;
63218;SDS011;49320;52.512;13.448;2023-07-09T05:27:38;3.42;;;2.20;;
63218;SDS011;49320;52.512;13.448;2023-07-09T05:30:05;3.95;;;2.63;;
63218;SDS011;49320;52.512;13.448;2023-07-09T05:32:33;3.05;;;2.33;;
63218;SDS011;49320;52.512;13.448;2023-07-09T05:35:00;4.47;;;2.40;;
63218;SDS011;49320;52.512;13.448;2023-07-09T05:37:27;3.90;;;2.75;;
63218;SDS011;49320;52.512;13.448;2023-07-09T05:39:54;2.75;;;2.20;;
63218;SDS011;49320;52.512;13.448;2023-07-09T05:42:21;2.78;;;2.20;;
63218;SDS011;49320;52.512;13.448;2023-07-09T05:44:48;4.10;;;2.30;;
63218;SDS011;49320;52.512;13.448;2023-07-09T05:47:14;2.30;;;2.00;;
63218;SDS011;49320;52.512;13.448;2023-07-09T05:49:41;4.28;;;2.47;;
63218;SDS011;49320;52.512;13.448;2023-07-09T05:52:08;2.92;;;2.28;;
63218;SDS011;49320;52.512;13.448;2023-07-09T05:54:35;2.53;;;2.25;;
63218;SDS011;49320;52.512;13.448;2023-07-09T05:57:03;2.78;;;2.30;;
63218;SDS011;49320;52.512;13.448;2023-07-09T05:59:30;2.70;;;2.20;;
63218;SDS011;49320;52.512;13.448;2023-07-09T06:01:57;3.22;;;2.45;;
63218;SDS011;49320;52.512;13.448;2023-07-09T06:04:27;4.70;;;2.53;;
63218;SDS011;49320;52.512;13.448;2023-07-09T06:06:54;3.65;;;2.50;;
63218;SDS011;49320;52.512;13.448;2023-07-09T06:09:21;4.22;;;2.35;;
63218;SDS011;49320;52.512;13.448;2023-07-09T06:11:50;2.90;;;2.55;;
63218;SDS011;49320;52.512;13.448;2023-07-09T06:14:20;2.38;;;2.00;;
63218;SDS011;49320;52.512;13.448;2023-07-09T06:16:47;2.53;;;2.30;;
63218;SDS011;49320;52.512;13.448;2023-07-09T06:19:14;2.67;;;2.03;;
63218;SDS011;49320;52.512;13.448;2023-07-09T06:21:41;3.45;;;2.65;;
63218;SDS011;49320;52.512;13.448;2023-07-09T06:24:08;4.85;;;2.70;;
63218;SDS011;49320;52.512;13.448;2023-07-09T06:26:35;3.28;;;2.55;;
63218;SDS011;49320;52.512;13.448;2023-07-09T06:29:02;3.88;;;2.40;;
63218;SDS011;49320;52.512;13.448;2023-07-09T06:31:30;4.03;;;2.80;;
63218;SDS011;49320;52.512;13.448;2023-07-09T06:34:01;2.95;;;2.40;;
63218;SDS011;49320;52.512;13.448;2023-07-09T06:36:33;3.33;;;2.30;;
63218;SDS011;49320;52.512;13.448;2023-07-09T06:39:00;2.67;;;2.15;;
63218;SDS011;49320;52.512;13.448;2023-07-09T06:41:28;4.20;;;2.58;;
63218;SDS011;49320;52.512;13.448;2023-07-09T06:43:55;3.10;;;2.45;;
63218;SDS011;49320;52.512;13.448;2023-07-09T06:46:22;3.10;;;2.17;;
63218;SDS011;49320;52.512;13.448;2023-07-09T06:48:49;3.72;;;2.95;;
63218;SDS011;49320;52.512;13.448;2023-07-09T06:51:16;3.70;;;2.47;;
63218;SDS011;49320;52.512;13.448;2023-07-09T06:53:43;4.03;;;2.35;;
63218;SDS011;49320;52.512;13.448;2023-07-09T06:56:14;4.05;;;2.60;;
63218;SDS011;49320;52.512;13.448;2023-07-09T06:58:41;4.30;;;2.92;;
63218;SDS011;49320;52.512;13.448;2023-07-09T07:01:08;4.57;;;2.30;;
63218;SDS011;49320;52.512;13.448;2023-07-09T07:03:37;6.25;;;2.92;;
63218;SDS011;49320;52.512;13.448;2023-07-09T07:06:04;3.15;;;2.40;;
63218;SDS011;49320;52.512;13.448;2023-07-09T07:08:33;2.88;;;2.30;;
63218;SDS011;49320;52.512;13.448;2023-07-09T07:11:00;3.28;;;2.70;;
63218;SDS011;49320;52.512;13.448;2023-07-09T07:13:31;3.03;;;2.58;;
63218;SDS011;49320;52.512;13.448;2023-07-09T07:16:01;3.38;;;2.45;;
63218;SDS011;49320;52.512;13.448;2023-07-09T07:18:34;3.25;;;2.95;;
63218;SDS011;49320;52.512;13.448;2023-07-09T07:21:02;2.90;;;2.60;;
63218;SDS011;49320;52.512;13.448;2023-07-09T07:23:29;2.92;;;2.50;;
63218;SDS011;49320;52.512;13.448;2023-07-09T07:25:56;2.95;;;2.42;;
63218;SDS011;49320;52.512;13.448;2023-07-09T07:28:23;2.70;;;2.30;;
63218;SDS011;49320;52.512;13.448;2023-07-09T07:31:00;3.20;;;2.60;;
63218;SDS011;49320;52.512;13.448;2023-07-09T07:33:31;5.55;;;2.35;;
63218;SDS011;49320;52.512;13.448;2023-07-09T07:35:58;3.50;;;2.42;;
63218;SDS011;49320;52.512;13.448;2023-07-09T07:38:45;2.92;;;2.60;;
63218;SDS011;49320;52.512;13.448;2023-07-09T07:41:12;3.28;;;2.33;;
63218;SDS011;49320;52.512;13.448;2023-07-09T07:43:39;3.50;;;2.60;;
63218;SDS011;49320;52.512;13.448;2023-07-09T07:46:06;2.72;;;2.35;;
63218;SDS011;49320;52.512;13.448;2023-07-09T07:48:34;3.45;;;2.47;;
63218;SDS011;49320;52.512;13.448;2023-07-09T07:51:01;3.65;;;2.13;;
63218;SDS011;49320;52.512;13.448;2023-07-09T07:53:30;5.68;;;2.50;;
63218;SDS011;49320;52.512;13.448;2023-07-09T07:55:57;2.72;;;2.30;;
63218;SDS011;49320;52.512;13.448;2023-07-09T07:58:25;2.83;;;2.22;;
63218;SDS011;49320;52.512;13.448;2023-07-09T08:00:55;3.88;;;2.63;;
63218;SDS011;49320;52.512;13.448;2023-07-09T08:03:23;3.40;;;2.83;;
63218;SDS011;49320;52.512;13.448;2023-07-09T08:05:51;5.20;;;2.55;;
63218;SDS011;49320;52.512;13.448;2023-07-09T08:08:19;3.72;;;2.92;;
63218;SDS011;49320;52.512;13.448;2023-07-09T08:10:48;4.35;;;2.70;;
63218;SDS011;49320;52.512;13.448;2023-07-09T08:13:16;2.53;;;2.20;;
63218;SDS011;49320;52.512;13.448;2023-07-09T08:15:44;2.90;;;2.60;;
63218;SDS011;49320;52.512;13.448;2023-07-09T08:18:13;3.45;;;2.67;;
63218;SDS011;49320;52.512;13.448;2023-07-09T08:20:42;4.45;;;2.80;;
63218;SDS011;49320;52.512;13.448;2023-07-09T08:23:11;2.63;;;2.38;;
63218;SDS011;49320;52.512;13.448;2023-07-09T08:25:38;3.30;;;3.00;;
63218;SDS011;49320;52.512;13.448;2023-07-09T08:28:04;3.00;;;2.45;;
63218;SDS011;49320;52.512;13.448;2023-07-09T08:30:31;3.45;;;2.40;;
63218;SDS011;49320;52.512;13.448;2023-07-09T08:32:58;4.50;;;3.72;;
63218;SDS011;49320;52.512;13.448;2023-07-09T08:35:25;3.50;;;2.38;;
63218;SDS011;49320;52.512;13.448;2023-07-09T08:38:01;4.53;;;2.75;;
63218;SDS011;49320;52.512;13.448;2023-07-09T08:40:29;3.30;;;2.92;;
63218;SDS011;49320;52.512;13.448;2023-07-09T08:42:59;3.10;;;2.70;;
63218;SDS011;49320;52.512;13.448;2023-07-09T08:45:44;3.20;;;2.80;;
63218;SDS011;49320;52.512;13.448;2023-07-09T08:48:31;4.68;;;2.78;;
63218;SDS011;49320;52.512;13.448;2023-07-09T08:51:04;4.65;;;3.38;;
63218;SDS011;49320;52.512;13.448;2023-07-09T08:54:01;3.75;;;2.20;;
63218;SDS011;49320;52.512;13.448;2023-07-09T08:56:29;3.30;;;2.35;;
63218;SDS011;49320;52.512;13.448;2023-07-09T08:59:00;3.15;;;2.53;;
63218;SDS011;49320;52.512;13.448;2023-07-09T09:01:33;2.80;;;2.38;;
63218;SDS011;49320;52.512;13.448;2023-07-09T09:04:13;4.32;;;2.50;;
63218;SDS011;49320;52.512;13.448;2023-07-09T09:06:49;2.60;;;2.40;;
63218;SDS011;49320;52.512;13.448;2023-07-09T09:09:31;3.10;;;2.47;;
63218;SDS011;49320;52.512;13.448;2023-07-09T09:15:16;2.67;;;2.30;;
63218;SDS011;49320;52.512;13.448;2023-07-09T09:17:47;2.65;;;2.30;;
63218;SDS011;49320;52.512;13.448;2023-07-09T09:20:38;3.20;;;2.42;;
63218;SDS011;49320;52.512;13.448;2023-07-09T09:25:35;3.13;;;2.50;;
63218;SDS011;49320;52.512;13.448;2023-07-09T09:30:34;3.65;;;2.50;;
63218;SDS011;49320;52.512;13.448;2023-07-09T09:33:02;2.40;;;2.00;;
63218;SDS011;49320;52.512;13.448;2023-07-09T09:35:39;3.30;;;2.20;;
63218;SDS011;49320;52.512;13.448;2023-07-09T09:38:11;3.13;;;2.50;;
63218;SDS011;49320;52.512;13.448;2023-07-09T09:40:43;3.15;;;2.30;;
63218;SDS011;49320;52.512;13.448;2023-07-09T09:43:17;3.33;;;2.55;;
63218;SDS011;49320;52.512;13.448;2023-07-09T09:45:48;3.10;;;2.35;;
63218;SDS011;49320;52.512;13.448;2023-07-09T09:50:46;2.85;;;2.47;;
63218;SDS011;49320;52.512;13.448;2023-07-09T09:53:24;2.35;;;2.15;;
63218;SDS011;49320;52.512;13.448;2023-07-09T09:55:52;2.50;;;2.05;;
63218;SDS011;49320;52.512;13.448;2023-07-09T09:58:26;5.03;;;2.60;;
63218;SDS011;49320;52.512;13.448;2023-07-09T10:00:56;2.85;;;2.40;;
63218;SDS011;49320;52.512;13.448;2023-07-09T10:03:34;3.10;;;2.78;;
63218;SDS011;49320;52.512;13.448;2023-07-09T10:06:12;3.15;;;2.70;;
63218;SDS011;49320;52.512;13.448;2023-07-09T10:08:59;2.92;;;2.63;;
63218;SDS011;49320;52.512;13.448;2023-07-09T10:12:13;3.05;;;2.75;;
63218;SDS011;49320;52.512;13.448;2023-07-09T10:14:54;2.75;;;2.33;;
63218;SDS011;49320;52.512;13.448;2023-07-09T10:18:00;7.75;;;2.60;;
63218;SDS011;49320;52.512;13.448;2023-07-09T10:21:03;3.17;;;2.50;;
63218;SDS011;49320;52.512;13.448;2023-07-09T10:23:51;3.17;;;2.88;;
63218;SDS011;49320;52.512;13.448;2023-07-09T10:26:44;4.10;;;2.80;;
63218;SDS011;49320;52.512;13.448;2023-07-09T10:29:22;2.85;;;2.55;;
63218;SDS011;49320;52.512;13.448;2023-07-09T10:35:04;3.33;;;2.88;;
63218;SDS011;49320;52.512;13.448;2023-07-09T10:40:43;3.30;;;2.78;;
63218;SDS011;49320;52.512;13.448;2023-07-09T10:43:23;4.05;;;2.80;;
63218;SDS011;49320;52.512;13.448;2023-07-09T10:46:24;3.03;;;2.65;;
63218;SDS011;49320;52.512;13.448;2023-07-09T10:48:55;3.25;;;2.58;;
63218;SDS011;49320;52.512;13.448;2023-07-09T10:51:28;3.05;;;2.72;;
63218;SDS011;49320;52.512;13.448;2023-07-09T10:56:38;3.65;;;2.83;;
63218;SDS011;49320;52.512;13.448;2023-07-09T11:05:02;3.72;;;3.00;;
63218;SDS011;49320;52.512;13.448;2023-07-09T11:07:36;2.88;;;2.53;;
63218;SDS011;49320;52.512;13.448;2023-07-09T11:10:25;4.05;;;2.65;;
63218;SDS011;49320;52.512;13.448;2023-07-09T11:13:01;6.65;;;3.08;;
63218;SDS011;49320;52.512;13.448;2023-07-09T11:15:39;3.03;;;2.53;;
63218;SDS011;49320;52.512;13.448;2023-07-09T11:18:32;3.53;;;2.50;;
63218;SDS011;49320;52.512;13.448;2023-07-09T11:21:03;3.70;;;3.30;;
63218;SDS011;49320;52.512;13.448;2023-07-09T11:23:52;3.35;;;2.88;;
63218;SDS011;49320;52.512;13.448;2023-07-09T11:26:29;3.55;;;2.95;;
63218;SDS011;49320;52.512;13.448;2023-07-09T11:31:34;2.97;;;2.50;;
63218;SDS011;49320;52.512;13.448;2023-07-09T11:36:49;4.65;;;3.95;;
63218;SDS011;49320;52.512;13.448;2023-07-09T11:39:28;4.22;;;3.83;;
63218;SDS011;49320;52.512;13.448;2023-07-09T11:42:03;6.38;;;5.60;;
63218;SDS011;49320;52.512;13.448;2023-07-09T11:44:50;7.18;;;6.40;;
63218;SDS011;49320;52.512;13.448;2023-07-09T11:47:47;6.63;;;5.90;;
63218;SDS011;49320;52.512;13.448;2023-07-09T11:50:26;6.95;;;5.95;;
63218;SDS011;49320;52.512;13.448;2023-07-09T11:52:58;5.65;;;5.07;;
63218;SDS011;49320;52.512;13.448;2023-07-09T11:55:43;6.47;;;4.72;;
63218;SDS011;49320;52.512;13.448;2023-07-09T11:58:13;4.27;;;3.87;;
63218;SDS011;49320;52.512;13.448;2023-07-09T12:00:46;5.22;;;3.80;;
63218;SDS011;49320;52.512;13.448;2023-07-09T12:03:18;4.60;;;3.85;;
63218;SDS011;49320;52.512;13.448;2023-07-09T12:05:56;3.88;;;3.47;;
63218;SDS011;49320;52.512;13.448;2023-07-09T12:08:34;4.15;;;3.75;;
63218;SDS011;49320;52.512;13.448;2023-07-09T12:14:12;4.05;;;3.50;;
63218;SDS011;49320;52.512;13.448;2023-07-09T12:16:44;4.43;;;4.03;;
63218;SDS011;49320;52.512;13.448;2023-07-09T12:19:20;3.83;;;3.42;;
63218;SDS011;49320;52.512;13.448;2023-07-09T12:21:53;5.10;;;3.92;;
63218;SDS011;49320;52.512;13.448;2023-07-09T12:24:25;3.35;;;3.05;;
63218;SDS011;49320;52.512;13.448;2023-07-09T12:26:55;4.15;;;3.70;;
63218;SDS011;49320;52.512;13.448;2023-07-09T12:29:29;3.58;;;3.28;;
63218;SDS011;49320;52.512;13.448;2023-07-09T12:32:03;3.58;;;3.28;;
63218;SDS011;49320;52.512;13.448;2023-07-09T12:34:41;3.58;;;3.00;;
63218;SDS011;49320;52.512;13.448;2023-07-09T12:37:11;3.33;;;3.03;;
63218;SDS011;49320;52.512;13.448;2023-07-09T12:39:42;3.70;;;3.00;;
63218;SDS011;49320;52.512;13.448;2023-07-09T12:42:14;3.50;;;3.20;;
63218;SDS011;49320;52.512;13.448;2023-07-09T12:44:45;3.20;;;2.90;;
63218;SDS011;49320;52.512;13.448;2023-07-09T12:47:15;3.97;;;3.15;;
63218;SDS011;49320;52.512;13.448;2023-07-09T12:49:44;3.42;;;2.88;;
63218;SDS011;49320;52.512;13.448;2023-07-09T12:52:17;3.38;;;3.08;;
63218;SDS011;49320;52.512;13.448;2023-07-09T12:54:59;5.68;;;3.33;;
63218;SDS011;49320;52.512;13.448;2023-07-09T12:57:28;3.35;;;3.05;;
63218;SDS011;49320;52.512;13.448;2023-07-09T12:59:57;3.83;;;2.90;;
63218;SDS011;49320;52.512;13.448;2023-07-09T13:02:25;3.05;;;2.75;;
63218;SDS011;49320;52.512;13.448;2023-07-09T13:04:59;3.28;;;2.90;;
63218;SDS011;49320;52.512;13.448;2023-07-09T13:07:46;4.80;;;3.28;;
63218;SDS011;49320;52.512;13.448;2023-07-09T13:10:22;4.03;;;3.30;;
63218;SDS011;49320;52.512;13.448;2023-07-09T13:13:03;2.92;;;2.65;;
63218;SDS011;49320;52.512;13.448;2023-07-09T13:15:39;3.20;;;2.90;;
63218;SDS011;49320;52.512;13.448;2023-07-09T13:20:42;3.30;;;2.65;;
63218;SDS011;49320;52.512;13.448;2023-07-09T13:23:17;3.20;;;2.80;;
63218;SDS011;49320;52.512;13.448;2023-07-09T13:25:47;3.63;;;3.22;;
63218;SDS011;49320;52.512;13.448;2023-07-09T13:30:42;3.50;;;3.20;;
63218;SDS011;49320;52.512;13.448;2023-07-09T13:33:10;4.43;;;3.00;;
63218;SDS011;49320;52.512;13.448;2023-07-09T13:35:37;3.75;;;2.67;;
63218;SDS011;49320;52.512;13.448;2023-07-09T13:38:11;3.45;;;3.10;;
63218;SDS011;49320;52.512;13.448;2023-07-09T13:40:46;3.50;;;3.20;;
63218;SDS011;49320;52.512;13.448;2023-07-09T13:43:24;4.25;;;3.20;;
63218;SDS011;49320;52.512;13.448;2023-07-09T13:45:58;4.40;;;3.28;;
63218;SDS011;49320;52.512;13.448;2023-07-09T13:48:29;3.70;;;2.88;;
63218;SDS011;49320;52.512;13.448;2023-07-09T13:51:00;4.03;;;3.00;;
63218;SDS011;49320;52.512;13.448;2023-07-09T13:53:31;3.72;;;3.17;;
63218;SDS011;49320;52.512;13.448;2023-07-09T13:55:59;3.50;;;3.20;;
63218;SDS011;49320;52.512;13.448;2023-07-09T13:58:26;3.78;;;3.08;;
63218;SDS011;49320;52.512;13.448;2023-07-09T14:00:59;3.17;;;2.88;;
63218;SDS011;49320;52.512;13.448;2023-07-09T14:03:44;3.22;;;2.88;;
63218;SDS011;49320;52.512;13.448;2023-07-09T14:06:12;4.38;;;3.15;;
63218;SDS011;49320;52.512;13.448;2023-07-09T14:08:41;4.15;;;3.00;;
63218;SDS011;49320;52.512;13.448;2023-07-09T14:11:11;5.07;;;3.10;;
63218;SDS011;49320;52.512;13.448;2023-07-09T14:13:41;3.38;;;3.08;;
63218;SDS011;49320;52.512;13.448;2023-07-09T14:16:10;3.45;;;3.15;;
63218;SDS011;49320;52.512;13.448;2023-07-09T14:18:38;3.35;;;3.05;;
63218;SDS011;49320;52.512;13.448;2023-07-09T14:21:09;4.00;;;3.60;;
63218;SDS011;49320;52.512;13.448;2023-07-09T14:23:43;3.08;;;2.78;;
63218;SDS011;49320;52.512;13.448;2023-07-09T14:26:10;3.38;;;3.08;;
63218;SDS011;49320;52.512;13.448;2023-07-09T14:28:37;4.45;;;3.53;;
63218;SDS011;49320;52.512;13.448;2023-07-09T14:31:20;3.55;;;3.03;;
63218;SDS011;49320;52.512;13.448;2023-07-09T14:33:52;3.85;;;3.05;;
63218;SDS011;49320;52.512;13.448;2023-07-09T14:36:20;4.00;;;3.17;;
63218;SDS011;49320;52.512;13.448;2023-07-09T14:38:47;3.97;;;3.15;;
63218;SDS011;49320;52.512;13.448;2023-07-09T14:41:24;3.10;;;2.75;;
63218;SDS011;49320;52.512;13.448;2023-07-09T14:43:53;3.25;;;2.95;;
63218;SDS011;49320;52.512;13.448;2023-07-09T14:46:23;3.90;;;3.20;;
63218;SDS011;49320;52.512;13.448;2023-07-09T14:48:50;3.67;;;3.05;;
63218;SDS011;49320;52.512;13.448;2023-07-09T14:51:17;4.70;;;3.20;;
63218;SDS011;49320;52.512;13.448;2023-07-09T14:53:44;3.28;;;2.72;;
63218;SDS011;49320;52.512;13.448;2023-07-09T14:56:12;3.80;;;3.33;;
63218;SDS011;49320;52.512;13.448;2023-07-09T14:58:40;3.83;;;3.42;;
63218;SDS011;49320;52.512;13.448;2023-07-09T15:01:12;4.95;;;3.08;;
63218;SDS011;49320;52.512;13.448;2023-07-09T15:03:41;3.42;;;3.08;;
63218;SDS011;49320;52.512;13.448;2023-07-09T15:06:08;4.95;;;3.28;;
63218;SDS011;49320;52.512;13.448;2023-07-09T15:08:35;3.45;;;3.10;;
63218;SDS011;49320;52.512;13.448;2023-07-09T15:11:03;3.30;;;3.00;;
63218;SDS011;49320;52.512;13.448;2023-07-09T15:13:33;4.00;;;2.92;;
63218;SDS011;49320;52.512;13.448;2023-07-09T15:16:03;4.03;;;3.30;;
63218;SDS011;49320;52.512;13.448;2023-07-09T15:18:31;4.32;;;3.40;;
63218;SDS011;49320;52.512;13.448;2023-07-09T15:21:01;3.90;;;3.45;;
63218;SDS011;49320;52.512;13.448;2023-07-09T15:23:31;3.20;;;2.90;;
63218;SDS011;49320;52.512;13.448;2023-07-09T15:26:11;3.63;;;3.00;;
63218;SDS011;49320;52.512;13.448;2023-07-09T15:28:40;4.05;;;3.45;;
63218;SDS011;49320;52.512;13.448;2023-07-09T15:31:11;3.58;;;3.17;;
63218;SDS011;49320;52.512;13.448;2023-07-09T15:33:38;3.30;;;3.00;;
63218;SDS011;49320;52.512;13.448;2023-07-09T15:36:08;3.55;;;2.90;;
63218;SDS011;49320;52.512;13.448;2023-07-09T15:38:38;4.40;;;3.00;;
63218;SDS011;49320;52.512;13.448;2023-07-09T15:41:11;3.42;;;2.78;;